Time;durP1;ratioP1;P1;durP2;ratioP2;P2;SDS_P1;SDS_P2;PMS_P1;PMS_P2;Temp;Humidity;BMP_temperature;BMP_pressure;BME280_temperature;BME280_humidity;BME280_pressure;Samples;Min_cycle;Max_cycle;Signal;HPM_P1;HPM_P2
2024/01/16 00:00:22;;;;;;;;;;;;;;;3.94;81.04;99042.97;5015800;28;20434;-83
2024/01/16 00:02:47;;;;;;;;;;;;;;;3.81;81.40;99046.47;4999820;28;19913;-84
2024/01/16 00:05:13;;;;;;;;;;;;;;;3.95;81.45;99066.19;4999851;28;20328;-84
2024/01/16 00:07:39;;;;;;;;;;;;;;;3.87;81.28;99066.88;4999794;28;20376;-84
2024/01/16 00:10:06;;;;;;;;;;;;;;;3.91;81.27;99078.72;5017362;28;19920;-81
2024/01/16 00:12:32;;;;;;;;;;;;;;;3.97;81.07;99074.78;4999395;28;20659;-84
2024/01/16 00:14:57;;;;;;;;;;;;;;;3.91;80.79;99067.91;5017594;28;19964;-83
2024/01/16 00:17:22;;;;;;;;;;;;;;;3.85;80.63;99075.28;5016012;28;20007;-84
2024/01/16 00:19:47;;;;;;;;;;;;;;;3.75;80.92;99067.38;4999253;28;20295;-81
2024/01/16 00:22:12;;;;;;;;;;;;;;;3.89;81.15;99075.47;4999642;28;19913;-84
2024/01/16 00:24:38;;;;;;;;;;;;;;;4.00;80.89;99089.59;4999012;28;20012;-83
2024/01/16 00:27:03;;;;;;;;;;;;;;;3.88;80.64;99071.19;5016827;28;19921;-83
2024/01/16 00:29:28;;;;;;;;;;;;;;;3.88;80.86;99087.38;4999184;28;19914;-83
2024/01/16 00:31:53;;;;;;;;;;;;;;;3.98;80.64;99099.91;5016962;28;19921;-82
2024/01/16 00:34:18;;;;;;;;;;;;;;;4.07;80.32;99115.13;5016421;28;20000;-83
2024/01/16 00:36:43;;;;;;;;;;;;;;;3.75;79.80;99096.28;4998922;28;19920;-83
2024/01/16 00:39:09;;;;;;;;;;;;;;;3.74;80.18;99081.97;4998188;28;20402;-83
2024/01/16 00:41:34;;;;;;;;;;;;;;;3.84;79.69;99097.19;4998600;28;19999;-83
2024/01/16 00:43:59;;;;;;;;;;;;;;;3.80;80.21;99096.22;5016157;28;19917;-84
2024/01/16 00:46:25;;;;;;;;;;;;;;;3.97;80.09;99104.50;5016372;28;19960;-83
2024/01/16 00:48:50;;;;;;;;;;;;;;;3.86;80.03;99106.59;4998633;28;19913;-82
2024/01/16 00:51:15;;;;;;;;;;;;;;;3.93;79.77;99119.72;5016198;28;19913;-82
2024/01/16 00:53:41;;;;;;;;;;;;;;;3.87;79.52;99120.91;4998092;28;20479;-83
2024/01/16 00:56:06;;;;;;;;;;;;;;;3.76;79.68;99123.03;5015907;28;19913;-83
2024/01/16 00:58:31;;;;;;;;;;;;;;;3.76;79.43;99119.50;4998320;28;19920;-82
2024/01/16 01:00:57;;;;;;;;;;;;;;;3.95;79.01;99127.53;5015954;28;20395;-83
2024/01/16 01:03:22;;;;;;;;;;;;;;;4.00;78.78;99133.63;5015783;28;19913;-82
2024/01/16 01:05:47;;;;;;;;;;;;;;;3.86;78.48;99109.31;5016473;28;19913;-82
2024/01/16 01:08:12;;;;;;;;;;;;;;;3.58;77.95;99107.69;4998815;28;19913;-83
2024/01/16 01:10:37;;;;;;;;;;;;;;;3.92;77.85;99130.84;4998038;28;20382;-82
2024/01/16 01:13:03;;;;;;;;;;;;;;;3.72;77.36;99107.69;5015935;28;20384;-83
2024/01/16 01:15:28;;;;;;;;;;;;;;;3.81;77.52;99127.53;5016200;28;19940;-83
2024/01/16 01:17:54;;;;;;;;;;;;;;;3.83;77.29;99130.72;5016418;28;20004;-84
2024/01/16 01:20:19;;;;;;;;;;;;;;;3.82;77.31;99137.22;5016126;28;20335;-83
2024/01/16 01:22:45;;;;;;;;;;;;;;;3.94;77.06;99142.16;5015481;28;19968;-83
2024/01/16 01:25:11;;;;;;;;;;;;;;;3.81;77.44;99139.13;5015807;28;19979;-83
2024/01/16 01:27:36;;;;;;;;;;;;;;;3.88;77.24;99149.53;4998217;28;19914;-83
2024/01/16 01:30:02;;;;;;;;;;;;;;;3.86;77.55;99147.13;5015868;28;20265;-81
2024/01/16 01:32:27;;;;;;;;;;;;;;;3.65;77.43;99140.50;5015619;28;19914;-83
2024/01/16 01:34:52;;;;;;;;;;;;;;;3.88;77.64;99161.13;4997859;28;19917;-83
2024/01/16 01:37:18;;;;;;;;;;;;;;;3.85;77.75;99150.94;4997927;28;19913;-82
2024/01/16 01:39:43;;;;;;;;;;;;;;;3.88;78.23;99155.72;5015151;28;19913;-82
2024/01/16 01:42:08;;;;;;;;;;;;;;;3.54;78.56;99150.69;4997093;28;20454;-83
2024/01/16 01:44:33;;;;;;;;;;;;;;;3.75;78.46;99150.31;5015111;28;19913;-81
2024/01/16 01:46:58;;;;;;;;;;;;;;;3.76;78.72;99166.25;5015467;28;19913;-81
2024/01/16 01:49:24;;;;;;;;;;;;;;;3.73;78.49;99171.41;4997128;28;19913;-83
2024/01/16 01:51:50;;;;;;;;;;;;;;;3.76;78.40;99174.34;5014897;28;19936;-83
2024/01/16 01:54:16;;;;;;;;;;;;;;;3.92;78.62;99182.16;5015053;28;19917;-83
2024/01/16 01:56:46;;;;;;;;;;;;;;;3.79;78.68;99171.03;5015136;28;19971;-82
2024/01/16 01:59:11;;;;;;;;;;;;;;;3.65;79.15;99185.63;5015378;28;19949;-83
2024/01/16 02:01:37;;;;;;;;;;;;;;;3.88;79.52;99190.06;5014940;28;19921;-83
2024/01/16 02:04:04;;;;;;;;;;;;;;;3.86;79.24;99193.06;4997062;28;19914;-83
2024/01/16 02:06:29;;;;;;;;;;;;;;;3.72;79.29;99172.50;5015111;28;19914;-83
2024/01/16 02:08:54;;;;;;;;;;;;;;;3.59;79.25;99179.47;4997695;28;20411;-83
2024/01/16 02:11:20;;;;;;;;;;;;;;;3.69;79.63;99202.81;4997256;28;19917;-82
2024/01/16 02:13:45;;;;;;;;;;;;;;;3.70;79.38;99196.31;4996888;28;19914;-82
2024/01/16 02:16:17;;;;;;;;;;;;;;;3.92;78.76;99207.28;4997505;28;19914;-82
2024/01/16 02:18:42;;;;;;;;;;;;;;;3.80;78.18;99185.34;5007147;28;19918;-82
2024/01/16 02:21:07;;;;;;;;;;;;;;;3.73;78.13;99195.72;4997526;28;19920;-83
2024/01/16 02:23:33;;;;;;;;;;;;;;;3.93;77.61;99210.78;4997354;28;20292;-83
2024/01/16 02:25:58;;;;;;;;;;;;;;;3.64;77.70;99192.13;5015709;28;20388;-82
2024/01/16 02:28:24;;;;;;;;;;;;;;;3.70;77.50;99193.63;5015635;28;19945;-82
2024/01/16 02:30:49;;;;;;;;;;;;;;;3.69;77.81;99194.72;5014803;28;19959;-83
2024/01/16 02:33:14;;;;;;;;;;;;;;;3.69;77.81;99194.72;4997323;28;20472;-83
2024/01/16 02:35:39;;;;;;;;;;;;;;;3.68;77.47;99203.94;4996719;28;19924;-85
2024/01/16 02:38:04;;;;;;;;;;;;;;;3.68;77.47;99203.94;4996724;28;19914;-83
2024/01/16 02:40:30;;;;;;;;;;;;;;;3.49;77.12;99202.06;4996027;28;19913;-83
2024/01/16 02:42:55;;;;;;;;;;;;;;;3.49;77.12;99202.06;4996719;28;19993;-83
2024/01/16 02:45:20;;;;;;;;;;;;;;;3.49;77.12;99202.06;4996491;28;19913;-82
2024/01/16 02:47:45;;;;;;;;;;;;;;;3.49;77.12;99202.06;5014127;28;19914;-83
2024/01/16 02:50:11;;;;;;;;;;;;;;;-144.99;100.00;67352.69;5012822;28;19921;-82
2024/01/16 02:52:36;;;;;;;;;;;;;;;-144.99;100.00;67352.69;4996150;28;20620;-82
2024/01/16 02:55:01;;;;;;;;;;;;;;;-144.99;100.00;67352.69;4996123;28;19957;-82
2024/01/16 02:57:26;;;;;;;;;;;;;;;-144.99;100.00;67352.69;5014059;28;19917;-83
2024/01/16 02:59:51;;;;;;;;;;;;;;;-144.99;100.00;67352.69;4996034;28;19914;-83
2024/01/16 03:02:17;;;;;;;;;;;;;;;-144.99;100.00;67352.69;4995405;28;19917;-82
2024/01/16 03:04:42;;;;;;;;;;;;;;;-144.99;100.00;67352.69;4996201;28;19920;-83
2024/01/16 03:07:07;;;;;;;;;;;;;;;-144.99;100.00;67352.69;4996201;28;19914;-80
2024/01/16 03:09:32;;;;;;;;;;;;;;;-144.99;100.00;67352.69;4996241;28;19918;-82
2024/01/16 03:11:58;;;;;;;;;;;;;;;-144.99;100.00;67352.69;4996449;28;19917;-82
2024/01/16 03:14:23;;;;;;;;;;;;;;;-144.99;100.00;67352.69;5013480;28;19924;-83
2024/01/16 03:16:48;;;;;;;;;;;;;;;-144.99;100.00;67352.69;5013750;28;19996;-82
2024/01/16 03:19:14;;;;;;;;;;;;;;;-144.99;100.00;67352.69;4996108;28;19925;-82
2024/01/16 03:21:39;;;;;;;;;;;;;;;-144.99;100.00;67352.69;4995941;28;19936;-83
2024/01/16 03:24:05;;;;;;;;;;;;;;;-144.99;100.00;67352.69;4996201;28;19982;-83
2024/01/16 03:26:30;;;;;;;;;;;;;;;-144.99;100.00;67352.69;4996239;28;19953;-82
2024/01/16 03:28:55;;;;;;;;;;;;;;;-144.99;100.00;67352.69;4996143;28;20292;-81
2024/01/16 03:31:22;;;;;;;;;;;;;;;-144.99;100.00;67352.69;5013594;28;19923;-83
2024/01/16 03:33:47;;;;;;;;;;;;;;;-144.99;100.00;67352.69;4995738;28;20369;-82
2024/01/16 03:36:12;;;;;;;;;;;;;;;-144.99;100.00;67352.69;5013637;28;19914;-83
2024/01/16 03:38:38;;;;;;;;;;;;;;;-144.99;100.00;67352.69;4996139;28;19953;-84
2024/01/16 03:41:04;;;;;;;;;;;;;;;-144.99;100.00;67352.69;4996153;28;20357;-82
2024/01/16 03:43:29;;;;;;;;;;;;;;;-144.99;100.00;67352.69;5013148;28;20532;-83
2024/01/16 03:45:56;;;;;;;;;;;;;;;-144.99;100.00;67352.69;4996154;28;19928;-83
2024/01/16 03:48:22;;;;;;;;;;;;;;;-144.99;100.00;67352.69;4996140;28;20008;-82
2024/01/16 03:50:47;;;;;;;;;;;;;;;-144.99;100.00;67352.69;5013490;28;20332;-81
2024/01/16 03:53:12;;;;;;;;;;;;;;;-144.99;100.00;67352.69;5013652;28;19919;-83
2024/01/16 03:55:37;;;;;;;;;;;;;;;-144.99;100.00;67352.69;4995932;28;20004;-83
2024/01/16 03:58:03;;;;;;;;;;;;;;;-144.99;100.00;67352.69;5013352;28;20004;-83
2024/01/16 04:00:28;;;;;;;;;;;;;;;-144.99;100.00;67352.69;5013196;28;19914;-83
2024/01/16 04:02:53;;;;;;;;;;;;;;;-144.99;100.00;67352.69;5013303;28;19913;-83
2024/01/16 04:05:18;;;;;;;;;;;;;;;-144.99;100.00;67352.69;5012694;28;19913;-79
2024/01/16 04:07:43;;;;;;;;;;;;;;;-144.99;100.00;67352.69;5011971;28;20069;-82
2024/01/16 04:10:08;;;;;;;;;;;;;;;-144.99;100.00;67352.69;4994341;28;19960;-82
2024/01/16 04:12:34;;;;;;;;;;;;;;;-144.99;100.00;67352.69;5011690;28;19913;-82
2024/01/16 04:14:59;;;;;;;;;;;;;;;-144.99;100.00;67352.69;4997758;28;20443;-82
2024/01/16 04:17:24;;;;;;;;;;;;;;;-144.99;100.00;67352.69;4998015;28;19921;-82
2024/01/16 04:19:49;;;;;;;;;;;;;;;-144.99;100.00;67352.69;5015334;28;19925;-82
2024/01/16 04:22:14;;;;;;;;;;;;;;;-144.99;100.00;67352.69;4997795;28;19920;-82
2024/01/16 04:24:40;;;;;;;;;;;;;;;-144.99;100.00;67352.69;5015105;28;20439;-82
2024/01/16 04:27:05;;;;;;;;;;;;;;;-144.99;100.00;67352.69;4998082;28;19922;-82
2024/01/16 04:29:30;;;;;;;;;;;;;;;-144.99;100.00;67352.69;4997520;28;19914;-82
2024/01/16 04:31:56;;;;;;;;;;;;;;;-144.99;100.00;67352.69;5014617;28;19913;-82
2024/01/16 04:34:21;;;;;;;;;;;;;;;-144.99;100.00;67352.69;5009017;28;19956;-82
2024/01/16 04:36:47;;;;;;;;;;;;;;;-144.99;100.00;67352.69;5014727;28;19952;-81
2024/01/16 04:39:12;;;;;;;;;;;;;;;-144.99;100.00;67352.69;5028327;28;20390;-83
2024/01/16 04:41:37;;;;;;;;;;;;;;;-144.99;100.00;67352.69;5030091;28;20321;-82
2024/01/16 04:44:02;;;;;;;;;;;;;;;-144.99;100.00;67352.69;5014294;28;19913;-83
2024/01/16 04:46:28;;;;;;;;;;;;;;;-144.99;100.00;67352.69;4999006;28;19936;-82
2024/01/16 04:48:53;;;;;;;;;;;;;;;-144.99;100.00;67352.69;5001020;28;19913;-82
2024/01/16 04:51:18;;;;;;;;;;;;;;;-144.99;100.00;67352.69;5018043;28;19921;-82
2024/01/16 04:53:43;;;;;;;;;;;;;;;-144.99;100.00;67352.69;4997001;28;19913;-82
2024/01/16 04:56:08;;;;;;;;;;;;;;;-144.99;100.00;67352.69;4997130;28;19945;-83
2024/01/16 04:58:34;;;;;;;;;;;;;;;-144.99;100.00;67352.69;4998227;28;19913;-82
2024/01/16 05:00:59;;;;;;;;;;;;;;;-144.99;100.00;67352.69;5007520;28;19913;-82
2024/01/16 05:03:24;;;;;;;;;;;;;;;-144.99;100.00;67352.69;4999184;28;19973;-82
2024/01/16 05:05:49;;;;;;;;;;;;;;;-144.99;100.00;67352.69;4997185;28;19913;-82
2024/01/16 05:08:14;;;;;;;;;;;;;;;-144.99;100.00;67352.69;5014587;28;19913;-82
2024/01/16 05:10:40;;;;;;;;;;;;;;;-144.99;100.00;67352.69;4996934;28;20392;-81
2024/01/16 05:13:05;;;;;;;;;;;;;;;-144.99;100.00;67352.69;5014575;28;19921;-83
2024/01/16 05:15:30;;;;;;;;;;;;;;;-144.99;100.00;67352.69;5010590;28;19924;-82
2024/01/16 05:17:55;;;;;;;;;;;;;;;-144.99;100.00;67352.69;5020912;28;19914;-82
2024/01/16 05:20:21;;;;;;;;;;;;;;;-144.99;100.00;67352.69;4997283;28;19944;-82
2024/01/16 05:22:47;;;;;;;;;;;;;;;-144.99;100.00;67352.69;5014516;28;19913;-82
2024/01/16 05:25:12;;;;;;;;;;;;;;;-144.99;100.00;67352.69;4996614;28;19920;-82
2024/01/16 05:27:37;;;;;;;;;;;;;;;-144.99;100.00;67352.69;4996853;28;19921;-82
2024/01/16 05:30:03;;;;;;;;;;;;;;;-144.99;100.00;67352.69;4996614;28;19917;-84
2024/01/16 05:32:28;;;;;;;;;;;;;;;-144.99;100.00;67352.69;4996524;28;19939;-82
2024/01/16 05:34:53;;;;;;;;;;;;;;;-144.99;100.00;67352.69;5014138;28;19925;-82
2024/01/16 05:37:19;;;;;;;;;;;;;;;-144.99;100.00;67352.69;5014099;28;19913;-82
2024/01/16 05:39:44;;;;;;;;;;;;;;;-144.99;100.00;67352.69;5014362;28;19914;-82
2024/01/16 05:42:11;;;;;;;;;;;;;;;-144.99;100.00;67352.69;5014307;28;19914;-82
2024/01/16 05:44:36;;;;;;;;;;;;;;;-144.99;100.00;67352.69;4996122;28;19921;-82
2024/01/16 05:47:02;;;;;;;;;;;;;;;-144.99;100.00;67352.69;5014113;28;19921;-82
2024/01/16 05:49:27;;;;;;;;;;;;;;;-144.99;100.00;67352.69;5013949;28;20326;-83
2024/01/16 05:51:52;;;;;;;;;;;;;;;-144.99;100.00;67352.69;4996189;28;19953;-83
2024/01/16 05:54:17;;;;;;;;;;;;;;;-144.99;100.00;67352.69;4995746;28;19929;-84
2024/01/16 05:56:42;;;;;;;;;;;;;;;-144.99;100.00;67352.69;4996177;28;19913;-82
2024/01/16 05:59:08;;;;;;;;;;;;;;;-144.99;100.00;67352.69;5013641;28;19913;-82
2024/01/16 06:01:33;;;;;;;;;;;;;;;-144.99;100.00;67352.69;4996033;28;19913;-84
2024/01/16 06:03:58;;;;;;;;;;;;;;;-144.99;100.00;67352.69;5013453;28;19913;-82
2024/01/16 06:06:24;;;;;;;;;;;;;;;-144.99;100.00;67352.69;5013511;28;20307;-82
2024/01/16 06:08:49;;;;;;;;;;;;;;;-144.99;100.00;67352.69;4996066;28;20395;-82
2024/01/16 06:11:14;;;;;;;;;;;;;;;-144.99;100.00;67352.69;5013931;28;20004;-83
2024/01/16 06:13:40;;;;;;;;;;;;;;;-144.99;100.00;67352.69;4995971;28;20372;-84
2024/01/16 06:16:08;;;;;;;;;;;;;;;-144.99;100.00;67352.69;5014018;28;19924;-82
2024/01/16 06:18:34;;;;;;;;;;;;;;;-144.99;100.00;67352.69;5014208;28;19913;-83
2024/01/16 06:20:59;;;;;;;;;;;;;;;-144.99;100.00;67352.69;4996412;28;20011;-80
2024/01/16 06:23:25;;;;;;;;;;;;;;;-144.99;100.00;67352.69;4995873;28;20674;-82
2024/01/16 06:25:50;;;;;;;;;;;;;;;-144.99;100.00;67352.69;4995961;28;19913;-82
2024/01/16 06:28:15;;;;;;;;;;;;;;;-144.99;100.00;67352.69;4996153;28;19913;-82
2024/01/16 06:30:40;;;;;;;;;;;;;;;-144.99;100.00;67352.69;4996180;28;19969;-83
2024/01/16 06:33:06;;;;;;;;;;;;;;;-144.99;100.00;67352.69;5013641;28;19920;-83
2024/01/16 06:35:31;;;;;;;;;;;;;;;-144.99;100.00;67352.69;4995816;28;20395;-84
2024/01/16 06:37:56;;;;;;;;;;;;;;;-144.99;100.00;67352.69;5013386;28;19921;-82
2024/01/16 06:40:21;;;;;;;;;;;;;;;-144.99;100.00;67352.69;5013811;28;20008;-82
2024/01/16 06:42:46;;;;;;;;;;;;;;;-144.99;100.00;67352.69;4995732;28;20442;-83
2024/01/16 06:45:13;;;;;;;;;;;;;;;-144.99;100.00;67352.69;5013328;28;19918;-83
2024/01/16 06:47:38;;;;;;;;;;;;;;;-144.99;100.00;67352.69;4995797;28;20400;-82
2024/01/16 06:50:04;;;;;;;;;;;;;;;-144.99;100.00;67352.69;4996199;28;19920;-82
2024/01/16 06:52:29;;;;;;;;;;;;;;;-144.99;100.00;67352.69;4995845;28;20012;-83
2024/01/16 06:54:54;;;;;;;;;;;;;;;-144.99;100.00;67352.69;4995147;28;20060;-82
2024/01/16 06:57:21;;;;;;;;;;;;;;;-144.99;100.00;67352.69;4995232;28;20409;-82
2024/01/16 06:59:46;;;;;;;;;;;;;;;-144.99;100.00;67352.69;4995387;28;20036;-82
2024/01/16 07:02:12;;;;;;;;;;;;;;;-144.99;100.00;67352.69;4995544;28;19940;-83
2024/01/16 07:04:37;;;;;;;;;;;;;;;-144.99;100.00;67352.69;4995119;28;20373;-82
2024/01/16 07:07:02;;;;;;;;;;;;;;;-144.99;100.00;67352.69;5012902;28;20013;-83
2024/01/16 07:09:28;;;;;;;;;;;;;;;-144.99;100.00;67352.69;4994749;28;19914;-83
2024/01/16 07:11:53;;;;;;;;;;;;;;;-144.99;100.00;67352.69;5023755;28;20342;-82
2024/01/16 07:14:19;;;;;;;;;;;;;;;-144.99;100.00;67352.69;5015493;28;20377;-82
2024/01/16 07:16:44;;;;;;;;;;;;;;;-144.99;100.00;67352.69;5012882;28;19936;-82
2024/01/16 07:19:10;;;;;;;;;;;;;;;-144.99;100.00;67352.69;5011282;28;19917;-82
2024/01/16 07:21:35;;;;;;;;;;;;;;;-144.99;100.00;67352.69;5017501;28;19983;-83
2024/01/16 07:24:00;;;;;;;;;;;;;;;-144.99;100.00;67352.69;5022660;28;19914;-83
2024/01/16 07:26:25;;;;;;;;;;;;;;;-144.99;100.00;67352.69;5012363;28;20000;-82
2024/01/16 07:28:51;;;;;;;;;;;;;;;-144.99;100.00;67352.69;4994839;28;20324;-83
2024/01/16 07:31:16;;;;;;;;;;;;;;;-144.99;100.00;67352.69;4994822;28;20289;-82
2024/01/16 07:33:41;;;;;;;;;;;;;;;-144.99;100.00;67352.69;4994883;28;20287;-82
2024/01/16 07:36:07;;;;;;;;;;;;;;;-144.99;100.00;67352.69;4998259;28;19917;-82
2024/01/16 07:38:33;;;;;;;;;;;;;;;-144.99;100.00;67352.69;5023692;28;20008;-83
2024/01/16 07:40:58;;;;;;;;;;;;;;;-144.99;100.00;67352.69;5012658;28;19918;-83
2024/01/16 07:43:24;;;;;;;;;;;;;;;-144.99;100.00;67352.69;5012106;28;20366;-82
2024/01/16 07:45:49;;;;;;;;;;;;;;;-144.99;100.00;67352.69;4994795;28;19921;-82
2024/01/16 07:48:14;;;;;;;;;;;;;;;-144.99;100.00;67352.69;4996871;28;20437;-82
2024/01/16 07:50:39;;;;;;;;;;;;;;;-144.99;100.00;67352.69;4998318;28;19913;-82
2024/01/16 07:53:05;;;;;;;;;;;;;;;-144.99;100.00;67352.69;4998300;28;19921;-84
2024/01/16 07:55:31;;;;;;;;;;;;;;;-144.99;100.00;67352.69;4998081;28;19949;-82
2024/01/16 07:57:56;;;;;;;;;;;;;;;-144.99;100.00;67352.69;4998365;28;20040;-82
2024/01/16 08:00:21;;;;;;;;;;;;;;;-144.99;100.00;67352.69;4996935;28;19953;-83
2024/01/16 08:02:47;;;;;;;;;;;;;;;-144.99;100.00;67352.69;5003336;28;20004;-82
2024/01/16 08:05:12;;;;;;;;;;;;;;;-144.99;100.00;67352.69;5024114;28;19960;-83
2024/01/16 08:07:38;;;;;;;;;;;;;;;-144.99;100.00;67352.69;5015749;28;20363;-83
2024/01/16 08:10:03;;;;;;;;;;;;;;;-144.99;100.00;67352.69;5015831;28;20398;-82
2024/01/16 08:12:28;;;;;;;;;;;;;;;-144.99;100.00;67352.69;5015569;28;19920;-83
2024/01/16 08:14:53;;;;;;;;;;;;;;;-144.99;100.00;67352.69;5015381;28;20407;-85
2024/01/16 08:17:19;;;;;;;;;;;;;;;-144.99;100.00;67352.69;4998562;28;19944;-82
2024/01/16 08:19:44;;;;;;;;;;;;;;;-144.99;100.00;67352.69;5015517;28;19925;-83
2024/01/16 08:22:09;;;;;;;;;;;;;;;-144.99;100.00;67352.69;5014088;28;20357;-83
2024/01/16 08:24:34;;;;;;;;;;;;;;;-144.99;100.00;67352.69;4997578;28;19914;-83
2024/01/16 08:26:59;;;;;;;;;;;;;;;-144.99;100.00;67352.69;4997777;28;19993;-83
2024/01/16 08:29:25;;;;;;;;;;;;;;;-144.99;100.00;67352.69;4990250;28;19917;-83
2024/01/16 08:31:52;;;;;;;;;;;;;;;-144.99;100.00;67352.69;5015621;28;19983;-82
2024/01/16 08:34:17;;;;;;;;;;;;;;;-144.99;100.00;67352.69;4997288;28;19928;-82
2024/01/16 08:36:42;;;;;;;;;;;;;;;-144.99;100.00;67352.69;5015677;28;20361;-83
2024/01/16 08:39:07;;;;;;;;;;;;;;;-144.99;100.00;67352.69;5015240;28;19920;-82
2024/01/16 08:41:33;;;;;;;;;;;;;;;-144.99;100.00;67352.69;5015446;28;20036;-84
2024/01/16 08:43:58;;;;;;;;;;;;;;;-144.99;100.00;67352.69;4997639;28;20512;-82
2024/01/16 08:46:23;;;;;;;;;;;;;;;-144.99;100.00;67352.69;5015452;28;19921;-82
2024/01/16 08:48:48;;;;;;;;;;;;;;;-144.99;100.00;67352.69;4997784;28;20299;-82
2024/01/16 08:51:14;;;;;;;;;;;;;;;-144.99;100.00;67352.69;4997610;28;20289;-82
2024/01/16 08:53:39;;;;;;;;;;;;;;;-144.99;100.00;67352.69;5013568;28;19961;-82
2024/01/16 08:56:08;;;;;;;;;;;;;;;-144.99;100.00;67352.69;4997618;28;19917;-82
2024/01/16 08:58:35;;;;;;;;;;;;;;;-144.99;100.00;67352.69;4997438;28;20399;-84
2024/01/16 09:01:07;;;;;;;;;;;;;;;-144.99;100.00;67352.69;4994549;28;20372;-82
2024/01/16 09:03:36;;;;;;;;;;;;;;;-144.99;100.00;67352.69;4997291;28;20376;-83
2024/01/16 09:06:01;;;;;;;;;;;;;;;-144.99;100.00;67352.69;4996916;28;19921;-82
2024/01/16 09:08:26;;;;;;;;;;;;;;;-144.99;100.00;67352.69;5001589;28;19917;-83
2024/01/16 09:10:56;;;;;;;;;;;;;;;-144.99;100.00;67352.69;5004314;28;20407;-83
2024/01/16 09:13:21;;;;;;;;;;;;;;;-144.99;100.00;67352.69;5013940;28;20006;-81
2024/01/16 09:15:48;;;;;;;;;;;;;;;-144.99;100.00;67352.69;5014194;28;19976;-84
2024/01/16 09:18:14;;;;;;;;;;;;;;;-144.99;100.00;67352.69;4996575;28;19914;-83
2024/01/16 09:20:39;;;;;;;;;;;;;;;-144.99;100.00;67352.69;5013935;28;20295;-83
2024/01/16 09:23:04;;;;;;;;;;;;;;;-144.99;100.00;67352.69;4996404;28;19913;-85
2024/01/16 09:25:29;;;;;;;;;;;;;;;-144.99;100.00;67352.69;5014646;28;19968;-82
2024/01/16 09:27:55;;;;;;;;;;;;;;;-144.99;100.00;67352.69;5014431;28;19920;-82
2024/01/16 09:30:22;;;;;;;;;;;;;;;-144.99;100.00;67352.69;5014573;28;20346;-82
2024/01/16 09:32:47;;;;;;;;;;;;;;;-144.99;100.00;67352.69;4997021;28;20000;-83
2024/01/16 09:35:12;;;;;;;;;;;;;;;-144.99;100.00;67352.69;4996955;28;20008;-83
2024/01/16 09:37:39;;;;;;;;;;;;;;;-144.99;100.00;67352.69;5014367;28;19913;-82
2024/01/16 09:40:05;;;;;;;;;;;;;;;-144.99;100.00;67352.69;5014464;28;19920;-82
2024/01/16 09:42:30;;;;;;;;;;;;;;;-144.99;100.00;67352.69;5013972;28;19914;-82
2024/01/16 09:44:56;;;;;;;;;;;;;;;-144.99;100.00;67352.69;5014167;28;19914;-82
2024/01/16 09:47:22;;;;;;;;;;;;;;;-144.99;100.00;67352.69;4996525;28;19965;-83
2024/01/16 09:49:48;;;;;;;;;;;;;;;-144.99;100.00;67352.69;5014241;28;20007;-82
2024/01/16 09:52:14;;;;;;;;;;;;;;;-144.99;100.00;67352.69;4997391;28;19917;-84
2024/01/16 09:54:39;;;;;;;;;;;;;;;-144.99;100.00;67352.69;5013888;28;20028;-82
2024/01/16 09:57:06;;;;;;;;;;;;;;;-144.99;100.00;67352.69;4996235;28;19914;-82
2024/01/16 09:59:32;;;;;;;;;;;;;;;-144.99;100.00;67352.69;5013847;28;19925;-83
2024/01/16 10:02:00;;;;;;;;;;;;;;;-144.99;100.00;67352.69;4996401;28;20398;-85
2024/01/16 10:04:27;;;;;;;;;;;;;;;-144.99;100.00;67352.69;4996491;28;20020;-82
2024/01/16 10:06:54;;;;;;;;;;;;;;;-144.99;100.00;67352.69;5013895;28;19964;-82
2024/01/16 10:09:19;;;;;;;;;;;;;;;-144.99;100.00;67352.69;5012180;28;20402;-82
2024/01/16 10:11:45;;;;;;;;;;;;;;;-144.99;100.00;67352.69;4994808;28;20004;-82
2024/01/16 10:14:11;;;;;;;;;;;;;;;-144.99;100.00;67352.69;4995759;28;19914;-82
2024/01/16 10:16:55;;;;;;;;;;;;;;;-144.99;100.00;67352.69;4996119;28;19956;-82
2024/01/16 10:19:21;;;;;;;;;;;;;;;-144.99;100.00;67352.69;5011810;28;20391;-83
2024/01/16 10:21:46;;;;;;;;;;;;;;;-144.99;100.00;67352.69;4995582;28;19913;-82
2024/01/16 10:24:12;;;;;;;;;;;;;;;-144.99;100.00;67352.69;4995375;28;20414;-82
2024/01/16 10:26:38;;;;;;;;;;;;;;;-144.99;100.00;67352.69;5013029;28;20007;-81
2024/01/16 10:29:04;;;;;;;;;;;;;;;-144.99;100.00;67352.69;5013186;28;19952;-84
2024/01/16 10:31:30;;;;;;;;;;;;;;;-144.99;100.00;67352.69;5013144;28;19920;-83
2024/01/16 10:33:55;;;;;;;;;;;;;;;-144.99;100.00;67352.69;4995122;28;19914;-83
2024/01/16 10:36:21;;;;;;;;;;;;;;;-144.99;100.00;67352.69;5013274;28;20000;-82
2024/01/16 10:38:47;;;;;;;;;;;;;;;-144.99;100.00;67352.69;5012923;28;19920;-82
2024/01/16 10:41:13;;;;;;;;;;;;;;;-144.99;100.00;67352.69;5012876;28;19914;-82
2024/01/16 10:43:39;;;;;;;;;;;;;;;-144.99;100.00;67352.69;5012644;28;19918;-82
2024/01/16 10:46:11;;;;;;;;;;;;;;;-144.99;100.00;67352.69;4995115;28;19914;-82
2024/01/16 10:48:37;;;;;;;;;;;;;;;-144.99;100.00;67352.69;4995042;28;20451;-82
2024/01/16 10:51:05;;;;;;;;;;;;;;;-144.99;100.00;67352.69;4996896;28;20003;-83
2024/01/16 10:53:32;;;;;;;;;;;;;;;-144.99;100.00;67352.69;5001409;28;19913;-83
2024/01/16 10:55:59;;;;;;;;;;;;;;;-144.99;100.00;67352.69;5014969;28;19925;-82
2024/01/16 10:58:25;;;;;;;;;;;;;;;-144.99;100.00;67352.69;4995511;28;19959;-82
2024/01/16 11:00:52;;;;;;;;;;;;;;;-144.99;100.00;67352.69;4995010;28;20338;-83
2024/01/16 11:03:40;;;;;;;;;;;;;;;-144.99;100.00;67352.69;5012673;28;20295;-82
2024/01/16 11:06:06;;;;;;;;;;;;;;;-144.99;100.00;67352.69;5006490;28;20364;-82
2024/01/16 11:08:33;;;;;;;;;;;;;;;-144.99;100.00;67352.69;5014759;28;20338;-82
2024/01/16 11:10:59;;;;;;;;;;;;;;;-144.99;100.00;67352.69;4999901;28;19914;-82
2024/01/16 11:13:25;;;;;;;;;;;;;;;-144.99;100.00;67352.69;4994718;28;19924;-82
2024/01/16 11:15:50;;;;;;;;;;;;;;;-144.99;100.00;67352.69;5012669;28;20004;-82
2024/01/16 11:18:16;;;;;;;;;;;;;;;-144.99;100.00;67352.69;4994878;28;19913;-82
2024/01/16 11:20:42;;;;;;;;;;;;;;;-144.99;100.00;67352.69;4994843;28;20335;-82
2024/01/16 11:23:08;;;;;;;;;;;;;;;-144.99;100.00;67352.69;5014290;28;20367;-82
2024/01/16 11:25:33;;;;;;;;;;;;;;;-144.99;100.00;67352.69;4998873;28;19952;-83
2024/01/16 11:28:12;;;;;;;;;;;;;;;-144.99;100.00;67352.69;5015496;28;19914;-82
2024/01/16 11:30:37;;;;;;;;;;;;;;;-144.99;100.00;67352.69;5016474;28;21030;-82
2024/01/16 11:33:04;;;;;;;;;;;;;;;-144.99;100.00;67352.69;4998802;28;19914;-81
2024/01/16 11:35:36;;;;;;;;;;;;;;;-144.99;100.00;67352.69;5016279;28;19924;-82
2024/01/16 11:38:16;;;;;;;;;;;;;;;-144.99;100.00;67352.69;5016576;28;19920;-83
2024/01/16 11:40:41;;;;;;;;;;;;;;;-144.99;100.00;67352.69;4998840;28;19921;-82
2024/01/16 11:43:25;;;;;;;;;;;;;;;-144.99;100.00;67352.69;4998567;28;19914;-82
2024/01/16 11:45:50;;;;;;;;;;;;;;;-144.99;100.00;67352.69;4998387;28;19913;-82
2024/01/16 11:48:16;;;;;;;;;;;;;;;-144.99;100.00;67352.69;4998712;28;19920;-81
2024/01/16 11:50:43;;;;;;;;;;;;;;;-144.99;100.00;67352.69;5016302;28;19920;-80
2024/01/16 11:53:08;;;;;;;;;;;;;;;-144.99;100.00;67352.69;4998399;28;19921;-82
2024/01/16 11:55:37;;;;;;;;;;;;;;;-144.99;100.00;67352.69;5016243;28;19917;-80
2024/01/16 11:58:21;;;;;;;;;;;;;;;-144.99;100.00;67352.69;5015574;28;20311;-82
2024/01/16 12:00:51;;;;;;;;;;;;;;;-144.99;100.00;67352.69;5003194;28;19921;-82
2024/01/16 12:03:18;;;;;;;;;;;;;;;-144.99;100.00;67352.69;4999506;28;19920;-81
2024/01/16 12:05:43;;;;;;;;;;;;;;;-144.99;100.00;67352.69;4991260;28;19918;-81
2024/01/16 12:08:09;;;;;;;;;;;;;;;-144.99;100.00;67352.69;4995350;28;19936;-82
2024/01/16 12:10:45;;;;;;;;;;;;;;;-144.99;100.00;67352.69;5018573;28;19956;-82
2024/01/16 12:13:12;;;;;;;;;;;;;;;-144.99;100.00;67352.69;5016600;28;20000;-81
2024/01/16 12:15:37;;;;;;;;;;;;;;;-144.99;100.00;67352.69;4998916;28;19948;-82
2024/01/16 12:18:05;;;;;;;;;;;;;;;-144.99;100.00;67352.69;4999445;28;19913;-82